createdAt,value
2022-08-24T00:02:34.312Z,1.70
2022-08-24T00:05:22.178Z,1.53
2022-08-24T00:08:10.151Z,1.80
2022-08-24T00:10:56.768Z,1.30
2022-08-24T00:13:44.567Z,2.20
2022-08-24T00:16:31.152Z,1.70
2022-08-24T00:19:18.173Z,2.03
2022-08-24T00:22:06.017Z,1.70
2022-08-24T00:24:53.961Z,1.50
2022-08-24T00:27:42.990Z,1.63
2022-08-24T00:30:29.776Z,1.60
2022-08-24T00:33:16.482Z,1.50
2022-08-24T00:36:03.300Z,1.90
2022-08-24T00:38:52.273Z,1.37
2022-08-24T00:41:43.827Z,1.60
2022-08-24T00:44:30.525Z,1.50
2022-08-24T00:47:21.638Z,1.70
2022-08-24T00:50:13.497Z,1.90
2022-08-24T00:53:03.001Z,1.80
2022-08-24T00:55:52.323Z,1.80
2022-08-24T00:58:46.676Z,1.60
2022-08-24T01:01:40.023Z,1.47
2022-08-24T01:04:32.137Z,1.83
2022-08-24T01:07:24.067Z,1.87
2022-08-24T01:10:13.708Z,1.60
2022-08-24T01:13:03.181Z,1.80
2022-08-24T01:15:54.811Z,1.70
2022-08-24T01:18:50.327Z,1.50
2022-08-24T01:21:42.650Z,1.57
2022-08-24T01:24:30.848Z,1.50
2022-08-24T01:27:19.235Z,1.60
2022-08-24T01:30:16.214Z,1.70
2022-08-24T01:33:06.412Z,1.70
2022-08-24T01:35:58.601Z,1.77
2022-08-24T01:38:45.441Z,1.50
2022-08-24T01:41:33.505Z,1.40
2022-08-24T01:44:21.436Z,1.90
2022-08-24T01:47:09.431Z,1.80
2022-08-24T01:49:55.802Z,1.53
2022-08-24T01:53:04.478Z,1.70
2022-08-24T01:55:51.291Z,1.73
2022-08-24T01:58:44.905Z,2.13
2022-08-24T02:01:35.412Z,1.83
2022-08-24T02:04:22.435Z,1.83
2022-08-24T02:07:09.370Z,1.80
2022-08-24T02:09:56.097Z,2.03
2022-08-24T02:12:45.278Z,2.27
2022-08-24T02:15:39.922Z,1.80
2022-08-24T02:18:26.728Z,1.60
2022-08-24T02:21:14.733Z,1.53
2022-08-24T02:24:01.419Z,1.60
2022-08-24T02:26:49.229Z,2.13
2022-08-24T02:29:35.900Z,2.00
2022-08-24T02:32:24.203Z,1.60
2022-08-24T02:35:11.944Z,1.83
2022-08-24T02:37:58.885Z,2.07
2022-08-24T02:40:45.552Z,1.93
2022-08-24T02:43:32.077Z,2.10
2022-08-24T02:46:22.766Z,2.00
2022-08-24T02:49:12.199Z,2.00
2022-08-24T02:51:58.675Z,1.80
2022-08-24T02:54:45.117Z,1.90
2022-08-24T02:57:31.653Z,2.30
2022-08-24T03:00:21.406Z,2.00
2022-08-24T03:03:08.964Z,2.03
2022-08-24T03:05:57.021Z,1.70
2022-08-24T03:08:44.867Z,2.13
2022-08-24T03:11:37.992Z,2.03
2022-08-24T03:14:24.781Z,1.80
2022-08-24T03:17:11.220Z,2.40
2022-08-24T03:19:57.792Z,2.23
2022-08-24T03:22:46.576Z,2.40
2022-08-24T03:25:33.308Z,2.30
2022-08-24T03:28:19.827Z,2.57
2022-08-24T03:31:10.681Z,1.90
2022-08-24T03:33:57.627Z,2.30
2022-08-24T03:36:47.010Z,2.23
2022-08-24T03:39:34.925Z,2.20
2022-08-24T03:42:21.561Z,2.17
2022-08-24T03:45:09.789Z,2.40
2022-08-24T03:47:59.385Z,2.37
2022-08-24T03:50:46.395Z,3.57
2022-08-24T03:53:33.089Z,2.10
2022-08-24T03:56:25.136Z,2.20
2022-08-24T03:59:12.168Z,2.67
2022-08-24T04:01:59.133Z,2.00
2022-08-24T04:04:45.797Z,1.97
2022-08-24T04:07:32.733Z,2.07
2022-08-24T04:10:19.457Z,2.13
2022-08-24T04:13:08.037Z,2.00
2022-08-24T04:15:54.735Z,2.03
2022-08-24T04:18:41.585Z,1.97
2022-08-24T04:21:29.584Z,2.20
2022-08-24T04:24:16.256Z,1.83
2022-08-24T04:27:02.587Z,1.90
2022-08-24T04:29:51.125Z,2.43
2022-08-24T04:32:37.988Z,1.67
2022-08-24T04:35:25.313Z,2.10
2022-08-24T04:38:11.739Z,2.10
2022-08-24T04:41:00.353Z,2.20
2022-08-24T04:43:48.322Z,1.93
2022-08-24T04:46:36.416Z,2.40
2022-08-24T04:49:22.717Z,2.07
2022-08-24T04:52:09.965Z,2.23
2022-08-24T04:54:56.443Z,2.27
2022-08-24T04:57:42.853Z,2.20
2022-08-24T05:00:29.363Z,2.20
2022-08-24T05:03:17.303Z,2.00
2022-08-24T05:06:06.573Z,1.93
2022-08-24T05:08:53.665Z,2.17
2022-08-24T05:11:41.405Z,2.33
2022-08-24T05:14:35.917Z,2.60
2022-08-24T05:17:22.493Z,2.37
2022-08-24T05:20:12.026Z,2.30
2022-08-24T05:23:02.508Z,2.30
2022-08-24T05:25:50.996Z,2.30
2022-08-24T05:28:37.569Z,2.03
2022-08-24T05:31:25.757Z,2.30
2022-08-24T05:34:14.585Z,2.17
2022-08-24T05:37:02.215Z,2.37
2022-08-24T05:39:48.796Z,2.43
2022-08-24T05:42:35.763Z,1.93
2022-08-24T05:45:22.032Z,2.40
2022-08-24T05:48:08.364Z,2.50
2022-08-24T05:50:55.223Z,2.40
2022-08-24T05:53:43.238Z,2.77
2022-08-24T05:56:32.012Z,2.27
2022-08-24T05:59:19.831Z,2.40
2022-08-24T06:02:06.452Z,2.63
2022-08-24T06:04:52.970Z,2.17
2022-08-24T06:07:39.381Z,2.17
2022-08-24T06:10:36.754Z,2.33
2022-08-24T06:13:24.309Z,2.13
2022-08-24T06:16:21.610Z,2.33
2022-08-24T06:19:21.172Z,2.67
2022-08-24T06:22:08.352Z,2.17
2022-08-24T06:25:12.267Z,2.40
2022-08-24T06:28:00.346Z,2.47
2022-08-24T06:30:46.978Z,2.43
2022-08-24T06:33:33.245Z,2.23
2022-08-24T06:36:20.584Z,2.13
2022-08-24T06:39:10.345Z,2.40
2022-08-24T06:41:56.937Z,2.60
2022-08-24T06:44:44.685Z,2.30
2022-08-24T06:47:31.161Z,2.17
2022-08-24T06:50:17.965Z,2.07
2022-08-24T06:53:07.563Z,2.60
2022-08-24T06:55:56.877Z,2.47
2022-08-24T06:58:43.397Z,2.70
2022-08-24T07:01:31.703Z,2.23
2022-08-24T07:04:19.012Z,2.20
2022-08-24T07:07:05.409Z,2.40
2022-08-24T07:09:51.882Z,2.37
2022-08-24T07:12:38.572Z,2.33
2022-08-24T07:15:26.498Z,2.33
2022-08-24T07:18:16.095Z,2.73
2022-08-24T07:21:03.612Z,2.20
2022-08-24T07:23:51.826Z,2.30
2022-08-24T07:26:39.952Z,2.40
2022-08-24T07:29:46.976Z,2.93
2022-08-24T07:32:33.604Z,2.83
2022-08-24T07:35:22.212Z,2.50
2022-08-24T07:38:09.379Z,2.50
2022-08-24T07:41:20.181Z,1.80
2022-08-24T07:44:02.661Z,2.40
2022-08-24T07:46:49.491Z,2.47
2022-08-24T07:49:37.548Z,2.87
2022-08-24T07:52:27.972Z,2.40
2022-08-24T07:55:15.758Z,2.40
2022-08-24T07:58:02.752Z,2.70
2022-08-24T08:00:49.846Z,2.17
2022-08-24T08:03:37.245Z,2.20
2022-08-24T08:06:23.881Z,2.33
2022-08-24T08:09:11.607Z,2.33
2022-08-24T08:11:58.361Z,2.30
2022-08-24T08:14:44.978Z,2.10
2022-08-24T08:17:31.314Z,2.13
2022-08-24T08:20:18.832Z,2.20
2022-08-24T08:23:24.601Z,2.00
2022-08-24T08:26:16.446Z,2.00
2022-08-24T08:29:03.072Z,2.10
2022-08-24T08:31:49.845Z,3.77
2022-08-24T08:34:36.172Z,1.80
2022-08-24T08:37:22.956Z,2.50
2022-08-24T08:40:25.494Z,2.23
2022-08-24T08:43:28.440Z,2.43
2022-08-24T08:46:38.641Z,2.13
2022-08-24T08:49:52.233Z,2.10
2022-08-24T08:53:05.893Z,2.00
2022-08-24T08:56:03.098Z,2.30
2022-08-24T08:59:01.520Z,2.03
2022-08-24T09:02:00.653Z,2.53
2022-08-24T09:05:10.435Z,2.50
2022-08-24T09:08:09.028Z,2.40
2022-08-24T09:11:01.930Z,2.00
2022-08-24T09:14:36.600Z,1.93
2022-08-24T09:17:39.018Z,2.03
2022-08-24T09:20:44.401Z,1.90
2022-08-24T09:23:43.234Z,1.80
2022-08-24T09:26:33.045Z,1.80
2022-08-24T09:29:26.875Z,2.10
2022-08-24T09:32:36.792Z,2.30
2022-08-24T09:35:32.709Z,1.90
2022-08-24T09:38:25.470Z,1.93
2022-08-24T09:41:39.017Z,2.27
2022-08-24T09:45:06.263Z,1.83
2022-08-24T09:48:20.186Z,1.87
2022-08-24T09:51:36.438Z,2.17
2022-08-24T09:54:50.673Z,2.00
2022-08-24T09:58:01.119Z,1.93
2022-08-24T10:00:51.337Z,2.07
2022-08-24T10:03:56.911Z,2.03
2022-08-24T10:06:57.638Z,1.83
2022-08-24T10:10:18.924Z,2.10
2022-08-24T10:16:08.737Z,2.20
2022-08-24T10:19:07.250Z,2.25
2022-08-24T10:21:59.996Z,2.00
2022-08-24T10:25:06.571Z,2.23
2022-08-24T10:28:04.664Z,2.08
2022-08-24T10:31:03.588Z,1.90
2022-08-24T10:34:02.929Z,2.00
2022-08-24T10:37:21.600Z,2.22
2022-08-24T10:40:28.224Z,1.90
2022-08-24T10:43:40.089Z,2.00
2022-08-24T10:46:45.499Z,1.92
2022-08-24T10:50:04.331Z,2.20
2022-08-24T10:53:32.599Z,1.92
2022-08-24T10:56:21.897Z,2.05
2022-08-24T10:59:21.784Z,1.75
2022-08-24T11:02:13.320Z,2.00
2022-08-24T11:05:01.568Z,1.95
2022-08-24T11:07:59.435Z,2.15
2022-08-24T11:10:46.063Z,2.45
2022-08-24T11:13:33.318Z,2.55
2022-08-24T11:16:26.987Z,2.22
2022-08-24T11:19:31.123Z,1.90
2022-08-24T11:22:30.250Z,2.30
2022-08-24T11:25:23.274Z,1.85
2022-08-24T11:28:21.705Z,2.03
2022-08-24T11:31:12.601Z,2.15
2022-08-24T11:34:03.555Z,2.15
2022-08-24T11:36:51.416Z,2.30
2022-08-24T11:39:39.105Z,2.78
2022-08-24T11:42:40.320Z,2.13
2022-08-24T11:45:35.325Z,2.03
2022-08-24T11:48:33.117Z,2.08
2022-08-24T11:51:30.477Z,2.03
2022-08-24T11:54:30.989Z,2.10
2022-08-24T11:57:21.860Z,2.22
2022-08-24T12:00:13.728Z,2.25
2022-08-24T12:03:06.239Z,2.35
2022-08-24T12:05:59.936Z,2.40
2022-08-24T12:08:53.010Z,2.53
2022-08-24T12:11:48.661Z,2.50
2022-08-24T12:14:42.089Z,2.10
2022-08-24T12:17:33.928Z,2.17
2022-08-24T12:20:31.920Z,2.30
2022-08-24T12:23:27.174Z,2.10
2022-08-24T12:26:18.101Z,2.10
2022-08-24T12:29:10.952Z,1.98
2022-08-24T12:32:00.718Z,2.30
2022-08-24T12:34:58.362Z,2.30
2022-08-24T12:37:52.041Z,2.42
2022-08-24T12:40:41.869Z,2.63
2022-08-24T12:43:34.079Z,2.45
2022-08-24T12:46:25.282Z,2.55
2022-08-24T12:49:18.058Z,2.22
2022-08-24T12:52:18.024Z,2.30
2022-08-24T12:55:22.368Z,2.28
2022-08-24T12:58:34.671Z,2.47
2022-08-24T13:01:29.188Z,2.60
2022-08-24T13:04:31.071Z,2.40
2022-08-24T13:07:30.804Z,2.65
2022-08-24T13:10:39.088Z,2.58
2022-08-24T13:13:49.277Z,2.30
2022-08-24T13:16:51.348Z,2.00
2022-08-24T13:19:40.987Z,2.35
2022-08-24T13:22:48.094Z,2.45
2022-08-24T13:25:53.340Z,2.00
2022-08-24T13:28:46.698Z,2.13
2022-08-24T13:31:37.703Z,2.35
2022-08-24T13:34:41.708Z,3.97
2022-08-24T13:37:29.517Z,2.67
2022-08-24T13:40:27.817Z,2.60
2022-08-24T13:43:20.307Z,2.45
2022-08-24T13:46:19.407Z,2.47
2022-08-24T13:49:22.298Z,2.55
2022-08-24T13:52:20.377Z,2.17
2022-08-24T13:55:39.125Z,2.28
2022-08-24T13:58:43.552Z,2.05
2022-08-24T14:01:38.137Z,2.33
2022-08-24T14:04:43.646Z,2.30
2022-08-24T14:07:42.264Z,2.40
2022-08-24T14:10:53.611Z,2.40
2022-08-24T14:13:57.176Z,2.47
2022-08-24T14:17:19.490Z,2.75
2022-08-24T14:20:13.191Z,2.28
2022-08-24T14:23:07.031Z,2.60
2022-08-24T14:26:32.177Z,2.58
2022-08-24T14:29:31.576Z,2.58
2022-08-24T14:32:39.601Z,2.42
2022-08-24T14:35:37.291Z,1.98
2022-08-24T14:38:35.717Z,2.45
2022-08-24T14:41:43.012Z,2.30
2022-08-24T14:44:52.708Z,2.33
2022-08-24T14:47:52.166Z,2.50
2022-08-24T14:50:45.318Z,2.47
2022-08-24T14:53:58.970Z,2.13
2022-08-24T14:57:00.610Z,2.17
2022-08-24T14:59:58.805Z,2.22
2022-08-24T15:03:19.591Z,2.35
2022-08-24T15:06:27.015Z,2.47
2022-08-24T15:09:23.917Z,2.30
2022-08-24T15:12:21.233Z,2.25
2022-08-24T15:15:12.468Z,2.13
2022-08-24T15:18:06.440Z,2.17
2022-08-24T15:21:07.589Z,2.15
2022-08-24T15:24:09.866Z,2.55
2022-08-24T15:27:08.739Z,2.80
2022-08-24T15:29:57.635Z,2.22
2022-08-24T15:32:48.946Z,2.33
2022-08-24T15:35:38.173Z,2.00
2022-08-24T15:38:35.825Z,2.67
2022-08-24T15:41:25.979Z,2.25
2022-08-24T15:44:21.185Z,2.20
2022-08-24T15:47:27.905Z,2.40
2022-08-24T15:50:25.285Z,2.65
2022-08-24T15:53:34.207Z,2.47
2022-08-24T15:56:35.646Z,2.10
2022-08-24T15:59:29.711Z,2.38
2022-08-24T16:02:26.825Z,2.00
2022-08-24T16:05:20.712Z,2.35
2022-08-24T16:08:13.363Z,2.47
2022-08-24T16:11:21.269Z,2.30
2022-08-24T16:14:13.962Z,2.50
2022-08-24T16:17:18.672Z,2.95
2022-08-24T16:20:08.745Z,2.70
2022-08-24T16:23:00.313Z,2.25
2022-08-24T16:25:51.172Z,2.33
2022-08-24T16:28:38.117Z,2.22
2022-08-24T16:31:49.241Z,2.58
2022-08-24T16:34:37.269Z,2.15
2022-08-24T16:37:25.185Z,2.70
2022-08-24T16:40:12.434Z,2.35
2022-08-24T16:42:59.415Z,2.50
2022-08-24T16:45:46.939Z,2.47
2022-08-24T16:48:34.597Z,2.78
2022-08-24T16:51:24.427Z,2.42
2022-08-24T16:54:11.341Z,2.05
2022-08-24T16:56:59.324Z,2.17
2022-08-24T16:59:48.394Z,2.40
2022-08-24T17:02:34.928Z,2.30
2022-08-24T17:05:22.009Z,2.65
2022-08-24T17:08:10.841Z,2.20
2022-08-24T17:10:57.394Z,2.28
2022-08-24T17:13:50.008Z,2.40
2022-08-24T17:16:38.891Z,2.35
2022-08-24T17:19:30.120Z,2.67
2022-08-24T17:22:17.925Z,1.98
2022-08-24T17:25:06.391Z,2.22
2022-08-24T17:27:54.369Z,2.05
2022-08-24T17:30:42.292Z,2.50
2022-08-24T17:33:29.026Z,2.42
2022-08-24T17:36:16.685Z,2.13
2022-08-24T17:39:04.897Z,2.20
2022-08-24T17:41:53.246Z,2.28
2022-08-24T17:44:39.655Z,2.33
2022-08-24T17:47:25.962Z,1.92
2022-08-24T17:50:13.765Z,2.17
2022-08-24T17:53:06.660Z,2.30
2022-08-24T17:55:53.950Z,2.33
2022-08-24T17:58:56.098Z,2.50
2022-08-24T18:01:43.057Z,2.30
2022-08-24T18:04:31.259Z,2.28
2022-08-24T18:07:35.963Z,2.30
2022-08-24T18:10:32.272Z,2.42
2022-08-24T18:13:19.026Z,2.30
2022-08-24T18:16:07.887Z,2.38
2022-08-24T18:18:55.367Z,2.30
2022-08-24T18:21:42.193Z,2.50
2022-08-24T18:24:32.303Z,2.80
2022-08-24T18:27:22.817Z,2.53
2022-08-24T18:30:14.565Z,3.42
2022-08-24T18:33:04.407Z,3.22
2022-08-24T18:35:51.348Z,2.88
2022-08-24T18:38:37.664Z,2.63
2022-08-24T18:41:27.553Z,3.05
2022-08-24T18:44:15.964Z,2.42
2022-08-24T18:47:02.755Z,2.13
2022-08-24T18:49:51.433Z,2.67
2022-08-24T18:52:39.076Z,2.80
2022-08-24T18:55:29.372Z,2.40
2022-08-24T18:58:15.813Z,2.42
2022-08-24T19:01:03.836Z,2.75
2022-08-24T19:03:51.628Z,2.88
2022-08-24T19:06:39.545Z,3.13
2022-08-24T19:09:26.729Z,2.63
2022-08-24T19:12:14.365Z,2.55
2022-08-24T19:15:03.160Z,2.45
2022-08-24T19:17:49.569Z,2.80
2022-08-24T19:20:36.291Z,2.33
2022-08-24T19:23:26.233Z,2.63
2022-08-24T19:26:13.052Z,2.70
2022-08-24T19:28:59.653Z,2.45
2022-08-24T19:31:47.210Z,2.60
2022-08-24T19:34:34.434Z,2.40
2022-08-24T19:37:20.866Z,2.50
2022-08-24T19:40:09.859Z,2.88
2022-08-24T19:42:57.782Z,2.60
2022-08-24T19:46:02.221Z,2.58
2022-08-24T19:48:48.964Z,2.60
2022-08-24T19:51:37.567Z,2.70
2022-08-24T19:54:25.237Z,2.50
2022-08-24T19:57:31.623Z,2.17
2022-08-24T20:00:26.043Z,4.03
2022-08-24T20:03:12.957Z,2.97
2022-08-24T20:05:59.848Z,2.90
2022-08-24T20:08:48.349Z,2.70
2022-08-24T20:11:35.677Z,2.78
2022-08-24T20:14:23.706Z,2.60
2022-08-24T20:17:10.269Z,2.83
2022-08-24T20:19:57.981Z,2.30
2022-08-24T20:22:44.898Z,2.45
2022-08-24T20:25:31.890Z,2.25
2022-08-24T20:28:29.267Z,2.50
2022-08-24T20:31:18.770Z,2.30
2022-08-24T20:34:05.400Z,2.20
2022-08-24T20:36:52.176Z,2.47
2022-08-24T20:39:39.828Z,2.42
2022-08-24T20:42:27.493Z,2.58
2022-08-24T20:45:14.837Z,2.17
2022-08-24T20:48:02.951Z,2.20
2022-08-24T20:50:49.792Z,2.83
2022-08-24T20:53:36.115Z,2.45
2022-08-24T20:56:30.657Z,3.15
2022-08-24T20:59:18.828Z,2.70
2022-08-24T21:02:05.813Z,2.20
2022-08-24T21:04:53.797Z,2.60
2022-08-24T21:07:46.028Z,2.90
2022-08-24T21:10:32.769Z,2.97
2022-08-24T21:13:19.333Z,2.60
2022-08-24T21:16:06.930Z,2.40
2022-08-24T21:18:53.780Z,2.30
2022-08-24T21:21:42.617Z,2.60
2022-08-24T21:24:29.412Z,2.70
2022-08-24T21:27:16.128Z,3.07
2022-08-24T21:30:02.776Z,2.73
2022-08-24T21:33:07.046Z,2.50
2022-08-24T21:35:54.903Z,2.50
2022-08-24T21:38:45.428Z,2.40
2022-08-24T21:41:32.477Z,2.77
2022-08-24T21:44:19.156Z,2.83
2022-08-24T21:47:06.780Z,3.13
2022-08-24T21:49:53.404Z,3.17
2022-08-24T21:52:41.536Z,3.17
2022-08-24T21:55:29.805Z,2.63
2022-08-24T21:58:16.488Z,3.40
2022-08-24T22:01:02.893Z,3.10
2022-08-24T22:03:49.260Z,2.97
2022-08-24T22:06:36.236Z,3.10
2022-08-24T22:09:23.623Z,2.40
2022-08-24T22:12:11.919Z,3.17
2022-08-24T22:14:58.501Z,2.60
2022-08-24T22:17:45.823Z,2.97
2022-08-24T22:20:39.338Z,3.43
2022-08-24T22:23:25.970Z,3.17
2022-08-24T22:26:12.513Z,2.90
2022-08-24T22:29:01.124Z,3.17
2022-08-24T22:31:47.970Z,3.10
2022-08-24T22:34:36.475Z,2.83
2022-08-24T22:37:23.229Z,2.83
2022-08-24T22:40:12.618Z,3.10
2022-08-24T22:42:59.448Z,2.87
2022-08-24T22:45:50.676Z,3.00
2022-08-24T22:48:37.272Z,3.67
2022-08-24T22:51:24.077Z,2.77
2022-08-24T22:54:11.207Z,3.10
2022-08-24T22:56:58.347Z,3.10
2022-08-24T22:59:45.129Z,2.93
2022-08-24T23:02:32.817Z,3.40
2022-08-24T23:05:19.133Z,2.80
2022-08-24T23:08:05.939Z,3.50
2022-08-24T23:10:53.069Z,2.80
2022-08-24T23:13:43.972Z,3.10
2022-08-24T23:16:32.424Z,2.70
2022-08-24T23:19:40.083Z,3.00
2022-08-24T23:22:27.398Z,2.97
2022-08-24T23:25:15.033Z,3.60
2022-08-24T23:28:01.694Z,3.17
2022-08-24T23:30:48.150Z,3.10
2022-08-24T23:33:35.539Z,2.97
2022-08-24T23:36:28.968Z,3.00
2022-08-24T23:39:15.496Z,3.10
2022-08-24T23:42:02.157Z,3.13
2022-08-24T23:44:48.604Z,3.37
2022-08-24T23:47:35.995Z,3.33
2022-08-24T23:50:22.652Z,3.60
2022-08-24T23:53:10.861Z,3.10
2022-08-24T23:56:06.516Z,3.27
2022-08-24T23:58:54.148Z,2.97
